createdAt,value
2022-10-16T00:01:40.469Z,14.50
2022-10-16T00:04:07.843Z,14.50
2022-10-16T00:06:35.097Z,14.40
2022-10-16T00:09:02.506Z,14.30
2022-10-16T00:11:43.039Z,14.30
2022-10-16T00:14:14.766Z,14.30
2022-10-16T00:16:42.805Z,14.30
2022-10-16T00:19:13.846Z,14.20
2022-10-16T00:21:41.712Z,14.20
2022-10-16T00:24:10.652Z,14.20
2022-10-16T00:26:40.137Z,14.10
2022-10-16T00:29:08.250Z,14.10
2022-10-16T00:31:35.842Z,14.10
2022-10-16T00:34:03.190Z,14.10
2022-10-16T00:36:31.733Z,14.10
2022-10-16T00:41:34.533Z,14.00
2022-10-16T00:44:25.471Z,13.90
2022-10-16T00:46:53.051Z,13.90
2022-10-16T00:49:22.002Z,13.80
2022-10-16T00:51:54.655Z,13.80
2022-10-16T00:54:33.242Z,13.70
2022-10-16T00:57:07.945Z,13.70
2022-10-16T00:59:40.472Z,13.70
2022-10-16T01:02:13.190Z,13.70
2022-10-16T01:04:49.348Z,13.60
2022-10-16T01:07:55.411Z,13.60
2022-10-16T01:10:36.612Z,13.60
2022-10-16T01:13:22.788Z,13.60
2022-10-16T01:16:16.664Z,13.60
2022-10-16T01:18:54.868Z,13.60
2022-10-16T01:21:37.791Z,13.60
2022-10-16T01:24:53.459Z,13.60
2022-10-16T01:27:30.101Z,13.60
2022-10-16T01:30:33.288Z,13.60
2022-10-16T01:33:26.521Z,13.60
2022-10-16T01:36:07.066Z,13.60
2022-10-16T01:38:40.960Z,13.50
2022-10-16T01:41:23.026Z,13.50
2022-10-16T01:44:06.809Z,13.60
2022-10-16T01:46:38.105Z,13.50
2022-10-16T01:49:07.517Z,13.60
2022-10-16T01:51:37.064Z,13.60
2022-10-16T01:54:09.226Z,13.60
2022-10-16T01:56:38.017Z,13.60
2022-10-16T01:59:17.918Z,13.60
2022-10-16T02:01:53.481Z,13.60
2022-10-16T02:04:37.333Z,13.60
2022-10-16T02:07:05.231Z,13.60
2022-10-16T02:09:35.714Z,13.50
2022-10-16T02:12:14.324Z,13.60
2022-10-16T02:14:42.360Z,13.60
2022-10-16T02:17:16.937Z,13.60
2022-10-16T02:19:47.209Z,13.70
2022-10-16T02:22:25.523Z,13.70
2022-10-16T02:25:09.529Z,13.70
2022-10-16T02:27:46.501Z,13.80
2022-10-16T02:30:35.065Z,13.80
2022-10-16T02:33:07.641Z,13.80
2022-10-16T02:35:36.825Z,13.90
2022-10-16T02:38:05.805Z,13.90
2022-10-16T02:40:33.373Z,13.90
2022-10-16T02:43:00.633Z,13.90
2022-10-16T02:45:27.984Z,14.00
2022-10-16T02:47:55.151Z,13.90
2022-10-16T02:50:23.307Z,14.00
2022-10-16T02:52:50.671Z,14.00
2022-10-16T02:55:18.420Z,14.00
2022-10-16T02:57:45.656Z,14.10
2022-10-16T03:00:16.563Z,14.10
2022-10-16T03:02:44.528Z,14.10
2022-10-16T03:05:12.529Z,14.10
2022-10-16T03:07:40.701Z,14.10
2022-10-16T03:10:08.652Z,14.10
2022-10-16T03:12:36.108Z,14.10
2022-10-16T03:15:03.669Z,14.10
2022-10-16T03:17:31.236Z,14.20
2022-10-16T03:19:58.419Z,14.20
2022-10-16T03:22:28.467Z,14.10
2022-10-16T03:24:55.838Z,14.20
2022-10-16T03:27:23.778Z,14.10
2022-10-16T03:29:51.144Z,14.10
2022-10-16T03:32:19.388Z,14.20
2022-10-16T03:34:46.820Z,14.10
2022-10-16T03:37:14.369Z,14.10
2022-10-16T03:39:41.714Z,14.20
2022-10-16T03:42:09.162Z,14.10
2022-10-16T03:44:36.464Z,14.10
2022-10-16T03:47:03.822Z,14.10
2022-10-16T03:49:31.024Z,14.10
2022-10-16T03:51:58.359Z,14.00
2022-10-16T03:54:25.635Z,14.00
2022-10-16T03:56:52.915Z,14.00
2022-10-16T03:59:20.282Z,14.00
2022-10-16T04:01:47.493Z,13.90
2022-10-16T04:04:14.822Z,14.00
2022-10-16T04:06:42.102Z,14.00
2022-10-16T04:09:09.330Z,13.90
2022-10-16T04:11:36.581Z,14.00
2022-10-16T04:14:03.982Z,14.00
2022-10-16T04:16:31.441Z,14.00
2022-10-16T04:18:58.580Z,14.00
2022-10-16T04:21:25.835Z,14.00
2022-10-16T04:23:53.286Z,14.10
2022-10-16T04:26:20.593Z,14.10
2022-10-16T04:28:47.950Z,14.00
2022-10-16T04:31:15.405Z,14.10
2022-10-16T04:33:44.816Z,14.00
2022-10-16T04:36:12.185Z,14.10
2022-10-16T04:38:40.674Z,14.00
2022-10-16T04:41:08.841Z,14.00
2022-10-16T04:43:36.111Z,13.90
2022-10-16T04:46:05.674Z,13.90
2022-10-16T04:48:33.349Z,13.90
2022-10-16T04:51:02.380Z,13.80
2022-10-16T04:53:29.580Z,13.80
2022-10-16T04:55:58.093Z,13.70
2022-10-16T04:58:25.281Z,13.70
2022-10-16T05:00:52.563Z,13.70
2022-10-16T05:03:20.254Z,13.60
2022-10-16T05:05:48.329Z,13.60
2022-10-16T05:08:17.337Z,13.50
2022-10-16T05:10:45.918Z,13.50
2022-10-16T05:13:13.458Z,13.50
2022-10-16T05:15:41.078Z,13.40
2022-10-16T05:18:09.322Z,13.40
2022-10-16T05:20:36.428Z,13.40
2022-10-16T05:23:03.604Z,13.40
2022-10-16T05:25:30.764Z,13.30
2022-10-16T05:27:57.952Z,13.30
2022-10-16T05:30:25.029Z,13.30
2022-10-16T05:32:52.364Z,13.20
2022-10-16T05:35:20.716Z,13.20
2022-10-16T05:37:48.365Z,13.20
2022-10-16T05:40:17.222Z,13.20
2022-10-16T05:42:44.465Z,13.20
2022-10-16T05:45:13.233Z,13.20
2022-10-16T05:47:40.707Z,13.20
2022-10-16T05:50:08.413Z,13.20
2022-10-16T05:52:35.749Z,13.20
2022-10-16T05:55:03.211Z,13.20
2022-10-16T05:57:30.954Z,13.20
2022-10-16T05:59:58.256Z,13.20
2022-10-16T06:02:25.698Z,13.30
2022-10-16T06:04:54.833Z,13.30
2022-10-16T06:07:24.326Z,13.40
2022-10-16T06:09:52.775Z,13.40
2022-10-16T06:12:20.959Z,13.50
2022-10-16T06:14:48.726Z,13.60
2022-10-16T06:17:16.493Z,13.70
2022-10-16T06:19:43.712Z,13.90
2022-10-16T06:22:18.198Z,14.00
2022-10-16T06:24:45.475Z,14.10
2022-10-16T06:27:12.742Z,14.20
2022-10-16T06:29:40.047Z,14.40
2022-10-16T06:32:07.359Z,14.50
2022-10-16T06:34:35.285Z,14.70
2022-10-16T06:37:02.718Z,14.70
2022-10-16T06:39:30.097Z,14.80
2022-10-16T06:41:57.395Z,14.90
2022-10-16T06:44:24.687Z,15.00
2022-10-16T06:46:52.339Z,15.20
2022-10-16T06:49:23.488Z,15.30
2022-10-16T06:51:50.840Z,15.20
2022-10-16T06:54:18.909Z,15.40
2022-10-16T06:56:46.248Z,15.70
2022-10-16T06:59:13.412Z,16.00
2022-10-16T07:01:41.079Z,16.40
2022-10-16T07:04:08.531Z,16.70
2022-10-16T07:06:35.998Z,16.90
2022-10-16T07:09:07.513Z,16.80
2022-10-16T07:11:35.756Z,16.70
2022-10-16T07:14:03.697Z,16.60
2022-10-16T07:16:33.931Z,16.40
2022-10-16T07:19:03.737Z,16.30
2022-10-16T07:21:37.849Z,16.30
2022-10-16T07:24:14.511Z,16.30
2022-10-16T07:26:43.918Z,16.30
2022-10-16T07:29:19.018Z,16.20
2022-10-16T07:31:47.910Z,16.30
2022-10-16T07:34:19.754Z,16.30
2022-10-16T07:36:50.839Z,16.30
2022-10-16T07:39:18.826Z,16.30
2022-10-16T07:41:46.107Z,16.30
2022-10-16T07:44:13.363Z,16.40
2022-10-16T07:46:40.944Z,16.50
2022-10-16T07:49:08.153Z,16.40
2022-10-16T07:51:35.387Z,16.50
2022-10-16T07:54:04.011Z,16.60
2022-10-16T07:56:33.886Z,16.60
2022-10-16T07:59:01.538Z,16.70
2022-10-16T08:01:28.933Z,16.70
2022-10-16T08:03:58.566Z,16.70
2022-10-16T08:06:27.805Z,16.90
2022-10-16T08:08:57.547Z,17.00
2022-10-16T08:11:25.547Z,17.10
2022-10-16T08:13:53.003Z,17.20
2022-10-16T08:16:20.383Z,17.40
2022-10-16T08:18:48.498Z,17.50
2022-10-16T08:21:21.341Z,17.60
2022-10-16T08:23:55.061Z,17.80
2022-10-16T08:26:27.825Z,17.90
2022-10-16T08:28:56.463Z,17.90
2022-10-16T08:31:24.442Z,17.90
2022-10-16T08:33:52.325Z,17.90
2022-10-16T08:36:19.576Z,18.00
2022-10-16T08:38:51.804Z,17.80
2022-10-16T08:41:37.544Z,17.70
2022-10-16T08:44:13.878Z,17.50
2022-10-16T08:47:25.862Z,17.40
2022-10-16T08:50:13.154Z,17.20
2022-10-16T08:52:45.299Z,17.00
2022-10-16T08:55:44.226Z,16.90
2022-10-16T08:58:19.019Z,16.80
2022-10-16T09:00:55.798Z,16.80
2022-10-16T09:03:47.642Z,16.80
2022-10-16T09:06:35.109Z,17.00
2022-10-16T09:09:19.725Z,17.20
2022-10-16T09:12:24.634Z,17.40
2022-10-16T09:15:36.993Z,17.60
2022-10-16T09:18:29.952Z,17.80
2022-10-16T09:21:22.824Z,17.90
2022-10-16T09:23:51.694Z,18.10
2022-10-16T09:28:53.906Z,18.20
2022-10-16T09:31:24.911Z,18.30
2022-10-16T09:34:01.267Z,18.30
2022-10-16T09:36:31.596Z,18.40
2022-10-16T09:39:09.007Z,18.40
2022-10-16T09:41:41.176Z,18.40
2022-10-16T09:44:44.723Z,18.50
2022-10-16T09:47:26.542Z,18.60
2022-10-16T09:50:23.156Z,18.60
2022-10-16T09:52:50.607Z,18.70
2022-10-16T09:55:19.967Z,18.70
2022-10-16T09:57:55.578Z,18.80
2022-10-16T10:00:25.807Z,18.80
2022-10-16T10:05:30.045Z,18.90
2022-10-16T10:08:08.967Z,19.00
2022-10-16T10:10:44.129Z,19.10
2022-10-16T10:13:25.208Z,19.10
2022-10-16T10:15:53.764Z,19.20
2022-10-16T10:18:25.174Z,19.20
2022-10-16T10:21:01.600Z,19.20
2022-10-16T10:23:33.860Z,19.30
2022-10-16T10:26:21.667Z,19.30
2022-10-16T10:29:42.366Z,19.30
2022-10-16T10:32:21.691Z,19.40
2022-10-16T10:35:09.939Z,19.50
2022-10-16T10:38:13.709Z,19.50
2022-10-16T10:40:53.604Z,19.60
2022-10-16T10:43:48.618Z,19.60
2022-10-16T10:46:47.419Z,19.60
2022-10-16T10:50:00.850Z,19.70
2022-10-16T10:52:43.437Z,19.70
2022-10-16T10:55:27.023Z,19.70
2022-10-16T10:58:51.809Z,19.80
2022-10-16T11:01:51.676Z,19.90
2022-10-16T11:04:42.025Z,19.90
2022-10-16T11:07:32.408Z,20.00
2022-10-16T11:10:21.518Z,20.00
2022-10-16T11:13:41.948Z,20.10
2022-10-16T11:16:35.276Z,20.20
2022-10-16T11:19:36.366Z,20.20
2022-10-16T11:22:10.322Z,20.30
2022-10-16T11:25:25.109Z,20.30
2022-10-16T11:28:30.841Z,20.40
2022-10-16T11:31:12.454Z,20.40
2022-10-16T11:33:58.482Z,20.50
2022-10-16T11:37:02.593Z,20.60
2022-10-16T11:39:31.867Z,20.60
2022-10-16T11:42:15.567Z,20.70
2022-10-16T11:45:19.831Z,20.80
2022-10-16T11:47:59.573Z,20.80
2022-10-16T11:50:45.241Z,20.80
2022-10-16T11:53:25.940Z,20.80
2022-10-16T11:55:53.271Z,20.90
2022-10-16T11:58:59.639Z,20.90
2022-10-16T12:04:35.758Z,21.30
2022-10-16T12:07:15.010Z,21.50
2022-10-16T12:09:44.135Z,21.70
2022-10-16T12:12:46.531Z,21.80
2022-10-16T12:15:29.775Z,21.90
2022-10-16T12:18:02.726Z,22.10
2022-10-16T12:20:37.287Z,22.20
2022-10-16T12:23:08.497Z,22.20
2022-10-16T12:25:47.742Z,22.20
2022-10-16T12:28:28.452Z,22.30
2022-10-16T12:31:09.614Z,22.30
2022-10-16T12:33:58.479Z,22.30
2022-10-16T12:36:36.354Z,22.30
2022-10-16T12:39:04.917Z,22.30
2022-10-16T12:41:38.852Z,22.40
2022-10-16T12:44:22.197Z,22.40
2022-10-16T12:46:51.812Z,22.40
2022-10-16T12:49:39.399Z,22.40
2022-10-16T12:52:45.525Z,22.50
2022-10-16T12:55:24.322Z,22.50
2022-10-16T12:58:09.723Z,22.50
2022-10-16T13:01:20.416Z,22.50
2022-10-16T13:03:50.768Z,22.60
2022-10-16T13:06:45.482Z,22.70
2022-10-16T13:09:31.654Z,22.70
2022-10-16T13:12:46.352Z,22.80
2022-10-16T13:15:55.182Z,22.80
2022-10-16T13:19:10.087Z,22.90
2022-10-16T13:22:02.011Z,22.80
2022-10-16T13:24:56.105Z,22.80
2022-10-16T13:28:09.441Z,22.80
2022-10-16T13:30:55.146Z,22.90
2022-10-16T13:33:35.807Z,22.90
2022-10-16T13:36:05.229Z,23.00
2022-10-16T13:38:37.566Z,23.00
2022-10-16T13:41:07.691Z,23.10
2022-10-16T13:43:57.268Z,23.10
2022-10-16T13:46:27.281Z,23.10
2022-10-16T13:49:07.090Z,23.10
2022-10-16T13:51:34.755Z,23.20
2022-10-16T13:54:03.493Z,23.20
2022-10-16T13:56:34.461Z,23.30
2022-10-16T13:59:41.141Z,23.40
2022-10-16T14:02:41.528Z,23.40
2022-10-16T14:05:11.777Z,23.50
2022-10-16T14:07:41.338Z,23.60
2022-10-16T14:10:28.434Z,23.50
2022-10-16T14:13:09.091Z,23.50
2022-10-16T14:15:38.501Z,23.40
2022-10-16T14:18:06.687Z,23.40
2022-10-16T14:20:36.682Z,23.40
2022-10-16T14:23:35.199Z,23.40
2022-10-16T14:26:24.148Z,23.40
2022-10-16T14:29:14.210Z,23.40
2022-10-16T14:31:42.506Z,23.40
2022-10-16T14:34:34.554Z,23.50
2022-10-16T14:37:27.738Z,23.50
2022-10-16T14:39:57.204Z,23.60
2022-10-16T14:42:28.605Z,23.50
2022-10-16T14:44:57.913Z,23.60
2022-10-16T14:47:31.180Z,23.60
2022-10-16T14:50:00.698Z,23.60
2022-10-16T14:52:28.005Z,23.60
2022-10-16T14:54:57.529Z,23.60
2022-10-16T14:57:30.415Z,23.50
2022-10-16T14:59:58.223Z,23.50
2022-10-16T15:02:37.691Z,23.50
2022-10-16T15:05:19.964Z,23.50
2022-10-16T15:07:47.925Z,23.50
2022-10-16T15:10:17.580Z,23.40
2022-10-16T15:12:45.598Z,23.40
2022-10-16T15:15:24.811Z,23.40
2022-10-16T15:17:57.957Z,23.40
2022-10-16T15:20:28.368Z,23.40
2022-10-16T15:22:55.753Z,23.40
2022-10-16T15:25:53.815Z,23.30
2022-10-16T15:28:23.975Z,23.30
2022-10-16T15:30:57.424Z,23.30
2022-10-16T15:33:29.837Z,23.20
2022-10-16T15:35:57.980Z,23.20
2022-10-16T15:38:26.076Z,23.10
2022-10-16T15:40:53.764Z,23.10
2022-10-16T15:43:21.472Z,23.00
2022-10-16T15:46:10.432Z,23.00
2022-10-16T15:48:37.721Z,23.00
2022-10-16T15:51:09.093Z,22.90
2022-10-16T15:53:37.171Z,22.80
2022-10-16T15:56:06.580Z,22.70
2022-10-16T15:58:35.026Z,22.70
2022-10-16T16:01:04.870Z,22.60
2022-10-16T16:03:33.384Z,22.50
2022-10-16T16:06:16.605Z,22.40
2022-10-16T16:08:46.374Z,22.30
2022-10-16T16:11:16.911Z,22.30
2022-10-16T16:13:44.808Z,22.20
2022-10-16T16:16:18.130Z,22.10
2022-10-16T16:18:45.833Z,22.00
2022-10-16T16:21:14.642Z,21.90
2022-10-16T16:23:43.088Z,21.80
2022-10-16T16:26:37.146Z,21.60
2022-10-16T16:29:05.258Z,21.30
2022-10-16T16:31:34.564Z,20.90
2022-10-16T16:34:08.042Z,20.70
2022-10-16T16:36:35.971Z,20.50
2022-10-16T16:39:05.165Z,20.30
2022-10-16T16:41:32.476Z,20.20
2022-10-16T16:44:08.509Z,20.00
2022-10-16T16:46:35.942Z,19.90
2022-10-16T16:49:04.242Z,19.80
2022-10-16T16:51:31.489Z,19.70
2022-10-16T16:53:58.897Z,19.60
2022-10-16T16:56:26.942Z,19.60
2022-10-16T16:58:56.771Z,19.50
2022-10-16T17:01:25.936Z,19.40
2022-10-16T17:03:56.101Z,19.40
2022-10-16T17:06:32.031Z,19.30
2022-10-16T17:09:00.703Z,19.30
2022-10-16T17:11:28.477Z,19.20
2022-10-16T17:13:57.561Z,19.10
2022-10-16T17:16:28.986Z,19.10
2022-10-16T17:19:01.365Z,19.10
2022-10-16T17:21:30.730Z,19.00
2022-10-16T17:23:58.630Z,19.00
2022-10-16T17:26:26.340Z,18.90
2022-10-16T17:28:57.349Z,18.80
2022-10-16T17:31:29.168Z,18.80
2022-10-16T17:33:58.754Z,18.70
2022-10-16T17:36:29.643Z,18.70
2022-10-16T17:39:08.815Z,18.60
2022-10-16T17:41:36.703Z,18.60
2022-10-16T17:44:05.564Z,18.50
2022-10-16T17:46:36.973Z,18.50
2022-10-16T17:49:07.377Z,18.40
2022-10-16T17:51:34.622Z,18.40
2022-10-16T17:54:02.673Z,18.30
2022-10-16T17:56:30.318Z,18.30
2022-10-16T17:59:00.449Z,18.30
2022-10-16T18:01:33.862Z,18.20
2022-10-16T18:04:04.875Z,18.20
2022-10-16T18:06:34.331Z,18.20
2022-10-16T18:09:04.125Z,18.20
2022-10-16T18:11:31.852Z,18.10
2022-10-16T18:14:00.242Z,18.10
2022-10-16T18:16:31.009Z,18.00
2022-10-16T18:18:59.763Z,18.00
2022-10-16T18:21:35.416Z,18.00
2022-10-16T18:24:03.186Z,17.90
2022-10-16T18:26:33.239Z,17.90
2022-10-16T18:29:02.408Z,17.90
2022-10-16T18:31:29.881Z,17.80
2022-10-16T18:33:57.464Z,17.80
2022-10-16T18:36:29.667Z,17.80
2022-10-16T18:39:00.202Z,17.70
2022-10-16T18:41:27.760Z,17.70
2022-10-16T18:43:56.365Z,17.70
2022-10-16T18:46:25.397Z,17.60
2022-10-16T18:48:54.365Z,17.50
2022-10-16T18:51:37.062Z,17.50
2022-10-16T18:54:09.029Z,17.50
2022-10-16T18:56:36.426Z,17.40
2022-10-16T18:59:05.695Z,17.40
2022-10-16T19:01:35.725Z,17.30
2022-10-16T19:04:09.334Z,17.30
2022-10-16T19:06:43.322Z,17.20
2022-10-16T19:09:11.482Z,17.20
2022-10-16T19:11:41.642Z,17.10
2022-10-16T19:14:10.912Z,17.10
2022-10-16T19:16:38.986Z,17.10
2022-10-16T19:19:08.206Z,17.00
2022-10-16T19:21:37.240Z,16.90
2022-10-16T19:24:08.999Z,16.90
2022-10-16T19:26:39.510Z,16.90
2022-10-16T19:29:10.808Z,16.90
2022-10-16T19:31:41.906Z,16.90
2022-10-16T19:34:11.355Z,16.90
2022-10-16T19:36:40.901Z,16.80
2022-10-16T19:39:14.270Z,16.80
2022-10-16T19:41:44.636Z,16.80
2022-10-16T19:44:16.611Z,16.80
2022-10-16T19:46:44.999Z,16.80
2022-10-16T19:49:18.095Z,16.70
2022-10-16T19:51:51.905Z,16.80
2022-10-16T19:54:19.712Z,16.70
2022-10-16T19:56:47.442Z,16.70
2022-10-16T19:59:20.408Z,16.70
2022-10-16T20:01:49.104Z,16.60
2022-10-16T20:04:21.619Z,16.60
2022-10-16T20:06:49.032Z,16.60
2022-10-16T20:09:17.828Z,16.50
2022-10-16T20:11:46.933Z,16.50
2022-10-16T20:14:14.333Z,16.40
2022-10-16T20:16:44.307Z,16.50
2022-10-16T20:19:11.682Z,16.40
2022-10-16T20:21:39.294Z,16.40
2022-10-16T20:24:10.763Z,16.40
2022-10-16T20:26:39.634Z,16.30
2022-10-16T20:29:07.633Z,16.30
2022-10-16T20:31:36.190Z,16.30
2022-10-16T20:34:08.346Z,16.30
2022-10-16T20:36:38.898Z,16.30
2022-10-16T20:39:08.047Z,16.30
2022-10-16T20:41:36.532Z,16.20
2022-10-16T20:44:05.419Z,16.20
2022-10-16T20:46:32.890Z,16.20
2022-10-16T20:49:10.466Z,16.10
2022-10-16T20:51:44.141Z,16.10
2022-10-16T20:54:12.312Z,16.10
2022-10-16T20:56:39.955Z,16.10
2022-10-16T20:59:07.352Z,16.00
2022-10-16T21:01:36.561Z,16.00
2022-10-16T21:04:10.745Z,16.00
2022-10-16T21:06:40.160Z,15.90
2022-10-16T21:09:08.340Z,15.90
2022-10-16T21:11:37.712Z,15.90
2022-10-16T21:14:09.820Z,15.90
2022-10-16T21:16:38.127Z,15.90
2022-10-16T21:19:05.646Z,15.90
2022-10-16T21:21:38.156Z,15.80
2022-10-16T21:24:10.893Z,15.80
2022-10-16T21:26:44.523Z,15.80
2022-10-16T21:29:12.235Z,15.80
2022-10-16T21:31:40.884Z,15.70
2022-10-16T21:34:08.201Z,15.70
2022-10-16T21:36:40.612Z,15.70
2022-10-16T21:39:19.812Z,15.60
2022-10-16T21:41:50.662Z,15.60
2022-10-16T21:44:20.195Z,15.60
2022-10-16T21:46:48.061Z,15.60
2022-10-16T21:49:19.618Z,15.60
2022-10-16T21:51:50.664Z,15.50
2022-10-16T21:54:22.280Z,15.50
2022-10-16T21:56:49.870Z,15.50
2022-10-16T21:59:17.775Z,15.40
2022-10-16T22:01:45.174Z,15.40
2022-10-16T22:04:16.848Z,15.30
2022-10-16T22:06:45.069Z,15.30
2022-10-16T22:09:14.593Z,15.30
2022-10-16T22:11:44.597Z,15.30
2022-10-16T22:14:19.332Z,15.30
2022-10-16T22:16:48.338Z,15.20
2022-10-16T22:19:18.881Z,15.20
2022-10-16T22:21:48.049Z,15.20
2022-10-16T22:24:16.579Z,15.10
2022-10-16T22:26:44.714Z,15.10
2022-10-16T22:29:14.861Z,15.10
2022-10-16T22:31:44.164Z,15.10
2022-10-16T22:34:14.376Z,15.00
2022-10-16T22:36:41.783Z,15.00
2022-10-16T22:39:09.985Z,15.00
2022-10-16T22:41:37.878Z,15.00
2022-10-16T22:44:05.214Z,15.00
2022-10-16T22:46:32.647Z,14.90
2022-10-16T22:48:59.984Z,14.90
2022-10-16T22:51:28.122Z,14.90
2022-10-16T22:53:58.963Z,14.90
2022-10-16T22:56:27.087Z,14.90
2022-10-16T22:58:54.666Z,14.90
2022-10-16T23:01:39.526Z,14.80
2022-10-16T23:04:08.241Z,14.80
2022-10-16T23:06:35.576Z,14.80
2022-10-16T23:09:03.777Z,14.80
2022-10-16T23:11:31.340Z,14.70
2022-10-16T23:13:58.825Z,14.70
2022-10-16T23:16:26.185Z,14.70
2022-10-16T23:18:53.698Z,14.70
2022-10-16T23:21:26.152Z,14.70
2022-10-16T23:23:54.862Z,14.70
2022-10-16T23:26:26.638Z,14.60
2022-10-16T23:28:57.925Z,14.60
2022-10-16T23:31:25.919Z,14.60
2022-10-16T23:33:54.016Z,14.60
2022-10-16T23:36:22.858Z,14.60
2022-10-16T23:38:51.515Z,14.60
2022-10-16T23:41:20.470Z,14.50
2022-10-16T23:43:48.205Z,14.50
2022-10-16T23:46:16.022Z,14.50
2022-10-16T23:48:44.320Z,14.40
2022-10-16T23:51:12.482Z,14.40
2022-10-16T23:53:40.451Z,14.40
2022-10-16T23:56:08.381Z,14.40
2022-10-16T23:58:35.947Z,14.40
